Time;durP1;ratioP1;P1;durP2;ratioP2;P2;SDS_P1;SDS_P2;PMS_P1;PMS_P2;Temp;Humidity;BMP_temperature;BMP_pressure;BME280_temperature;BME280_humidity;BME280_pressure;Samples;Min_cycle;Max_cycle;Signal;HPM_P1;HPM_P2
2022/11/10 00:02:32;;;;;;;10.73;8.47;;;;;14.10;99281.00;;;;16519142;28;20711;-48
2022/11/10 00:10:57;;;;;;;7.43;6.73;;;;;13.80;99289.00;;;;16516794;28;20223;-48
2022/11/10 00:19:18;;;;;;;7.67;6.73;;;;;14.30;99289.00;;;;16511722;28;20216;-49
2022/11/10 00:27:41;;;;;;;3.40;3.10;;;;;13.90;99292.00;;;;16513412;28;20715;-49
2022/11/10 00:36:02;;;;;;;3.53;3.23;;;;;13.80;99305.00;;;;16517324;28;20224;-48
2022/11/10 00:44:25;;;;;;;4.20;3.80;;;;;13.90;99309.00;;;;16516438;28;20231;-48
2022/11/10 00:52:46;;;;;;;5.90;4.40;;;;;14.00;99313.00;;;;16516383;28;20239;-49
2022/11/10 01:01:09;;;;;;;3.30;3.07;;;;;13.90;99331.00;;;;16524873;28;20236;-48
2022/11/10 01:09:30;;;;;;;2.73;2.53;;;;;13.70;99341.00;;;;16529540;28;20199;-48
2022/11/10 01:17:54;;;;;;;5.47;2.80;;;;;14.10;99339.00;;;;16528266;28;20981;-48
2022/11/10 01:26:16;;;;;;;3.43;2.77;;;;;13.80;99347.00;;;;16535730;28;20215;-48
2022/11/10 01:34:38;;;;;;;3.17;2.73;;;;;13.50;99363.00;;;;16523642;28;20634;-48
2022/11/10 01:43:00;;;;;;;2.83;2.63;;;;;13.60;99370.00;;;;16525950;28;20216;-48
2022/11/10 01:51:26;;;;;;;4.23;2.47;;;;;13.40;99375.00;;;;16527724;28;20224;-48
2022/11/10 01:59:48;;;;;;;4.03;2.83;;;;;13.40;99385.00;;;;16527475;28;20207;-48
2022/11/10 02:08:12;;;;;;;5.30;3.20;;;;;13.20;99387.00;;;;16524130;28;20207;-49
2022/11/10 02:16:33;;;;;;;3.60;2.90;;;;;13.20;99393.00;;;;16524333;28;20274;-48
2022/11/10 02:24:56;;;;;;;4.80;3.03;;;;;12.90;99402.00;;;;16526758;28;20235;-48
2022/11/10 02:33:17;;;;;;;5.13;3.70;;;;;12.60;99425.00;;;;16523000;28;20235;-48
2022/11/10 02:41:39;;;;;;;7.33;3.80;;;;;12.30;99444.00;;;;16522109;28;20231;-48
2022/11/10 02:50:00;;;;;;;4.83;3.90;;;;;12.10;99456.00;;;;16523226;28;20324;-49
2022/11/10 02:58:22;;;;;;;6.90;3.97;;;;;12.10;99468.00;;;;16517343;28;20232;-48
2022/11/10 03:06:43;;;;;;;5.33;3.97;;;;;12.00;99473.00;;;;16520273;28;20231;-49
2022/11/10 03:15:07;;;;;;;6.83;3.80;;;;;11.70;99478.00;;;;16530140;28;20594;-48
2022/11/10 03:23:28;;;;;;;7.10;4.03;;;;;11.80;99492.00;;;;16527997;28;20224;-48
2022/11/10 03:31:51;;;;;;;8.37;4.10;;;;;11.80;99506.00;;;;16521533;28;20584;-48
2022/11/10 03:40:12;;;;;;;9.03;3.93;;;;;11.90;99514.00;;;;16523318;28;20718;-48
2022/11/10 03:48:34;;;;;;;7.57;4.20;;;;;11.80;99518.00;;;;16520818;28;20270;-48
2022/11/10 03:56:55;;;;;;;5.87;4.37;;;;;11.80;99529.00;;;;16520297;28;20226;-48
2022/11/10 04:31:15;;;;;;;5.93;4.97;;;;;11.50;99572.00;;;;16515613;28;20317;-48
2022/11/10 04:39:38;;;;;;;9.10;4.50;;;;;11.80;99584.00;;;;16512321;28;20227;-48
2022/11/10 04:47:59;;;;;;;8.40;4.20;;;;;12.00;99584.00;;;;16516495;28;20285;-48
2022/11/10 04:56:22;;;;;;;7.40;4.70;;;;;12.00;99597.00;;;;16507086;28;20227;-49
2022/11/10 05:04:43;;;;;;;9.20;4.50;;;;;12.00;99617.00;;;;16512674;28;20231;-48
2022/11/10 05:13:06;;;;;;;6.47;4.73;;;;;11.50;99631.00;;;;16514650;28;20249;-48
2022/11/10 05:21:27;;;;;;;11.30;5.27;;;;;11.20;99635.00;;;;16519616;28;20223;-48
2022/11/10 05:29:49;;;;;;;10.53;4.73;;;;;10.90;99648.00;;;;16517644;28;20452;-48
2022/11/10 05:38:10;;;;;;;8.20;6.87;;;;;11.00;99653.00;;;;16512481;28;20216;-48
2022/11/10 05:46:32;;;;;;;9.30;6.00;;;;;10.40;99661.00;;;;16525434;28;20218;-48
2022/11/10 05:54:54;;;;;;;8.20;6.53;;;;;10.30;99663.00;;;;16520882;28;20632;-48
2022/11/10 06:03:17;;;;;;;19.13;6.87;;;;;10.40;99675.00;;;;16512143;28;20732;-48
2022/11/10 06:11:38;;;;;;;7.27;5.53;;;;;10.70;99682.00;;;;16525609;28;20738;-48
2022/11/10 06:20:02;;;;;;;8.43;4.30;;;;;10.60;99719.00;;;;16525303;28;20200;-48
2022/11/10 06:28:23;;;;;;;8.00;7.23;;;;;11.10;99741.00;;;;16513466;28;20256;-48
2022/11/10 06:36:46;;;;;;;10.87;9.80;;;;;11.20;99737.00;;;;16509451;28;20314;-48
2022/11/10 06:45:07;;;;;;;8.83;7.30;;;;;10.80;99772.00;;;;16504997;28;20239;-48
2022/11/10 06:53:29;;;;;;;7.60;6.63;;;;;10.30;99799.00;;;;16487828;28;20229;-48
2022/11/10 07:01:50;;;;;;;9.47;7.40;;;;;10.60;99821.00;;;;16490936;28;20232;-48
2022/11/10 07:10:13;;;;;;;8.23;6.13;;;;;11.10;99827.00;;;;16498014;28;20216;-48
2022/11/10 07:18:34;;;;;;;9.90;6.57;;;;;11.10;99850.00;;;;16511237;28;20224;-48
2022/11/10 07:26:57;;;;;;;12.83;7.30;;;;;11.50;99861.00;;;;16497791;28;20224;-48
2022/11/10 07:35:18;;;;;;;6.87;5.73;;;;;12.00;99862.00;;;;16555185;23;20226;-48
2022/11/10 07:43:40;;;;;;;8.30;7.10;;;;;12.60;99855.00;;;;16555320;28;20220;-48
2022/11/10 07:52:01;;;;;;;9.77;8.13;;;;;12.70;99863.00;;;;16520410;28;20227;-47
2022/11/10 08:00:24;;;;;;;12.73;10.33;;;;;12.80;99878.00;;;;16495522;28;20231;-48
2022/11/10 08:08:46;;;;;;;10.80;9.80;;;;;12.80;99884.00;;;;16500969;28;20577;-47
2022/11/10 08:17:09;;;;;;;13.30;11.90;;;;;13.00;99893.00;;;;16478630;28;20247;-48
2022/11/10 08:25:32;;;;;;;12.03;10.00;;;;;13.40;99888.00;;;;16476492;28;20751;-48
2022/11/10 08:33:54;;;;;;;17.67;10.23;;;;;14.10;99894.00;;;;16508346;28;20600;-48
2022/11/10 08:42:15;;;;;;;10.83;8.50;;;;;14.30;99905.00;;;;16509845;28;20232;-49
2022/11/10 08:50:38;;;;;;;18.20;12.90;;;;;14.30;99914.00;;;;16504485;28;20228;-48
2022/11/10 08:58:59;;;;;;;12.60;11.30;;;;;14.40;99915.00;;;;16510905;28;20216;-48
2022/11/10 09:07:21;;;;;;;13.17;9.93;;;;;14.40;99930.00;;;;16511051;28;20204;-48
2022/11/10 09:15:43;;;;;;;10.70;9.60;;;;;14.70;99932.00;;;;16515878;28;20232;-49
2022/11/10 09:24:06;;;;;;;9.10;8.20;;;;;15.00;99944.00;;;;16529289;28;20224;-48
2022/11/10 09:32:30;;;;;;;9.00;8.20;;;;;15.20;99948.00;;;;16522698;28;20264;-48
2022/11/10 09:41:01;;;;;;;9.20;8.30;;;;;15.30;99962.00;;;;16529379;28;20220;-48
2022/11/10 09:49:29;;;;;;;18.53;8.60;;;;;15.80;99976.00;;;;16502085;28;20220;-48
2022/11/10 09:57:54;;;;;;;8.77;5.97;;;;;16.30;99969.00;;;;16499503;28;20601;-49
2022/11/10 10:06:17;;;;;;;8.97;6.23;;;;;17.10;99985.00;;;;16470515;28;20363;-49
2022/11/10 10:15:01;;;;;;;4.97;4.37;;;;;17.40;99986.00;;;;16496638;28;20778;-48
2022/11/10 10:23:27;;;;;;;5.60;4.63;;;;;17.80;99979.00;;;;16510232;28;20230;-49
2022/11/10 10:31:51;;;;;;;6.10;3.97;;;;;18.30;99964.00;;;;16523515;28;20239;-49
2022/11/10 10:40:16;;;;;;;4.17;3.47;;;;;19.20;99971.00;;;;16523123;28;20227;-49
2022/11/10 10:48:38;;;;;;;3.40;3.00;;;;;20.20;99960.00;;;;16478447;28;20220;-49
2022/11/10 10:57:15;;;;;;;5.80;3.40;;;;;20.40;99968.00;;;;16481290;28;20217;-49
2022/11/10 11:05:37;;;;;;;3.10;2.20;;;;;20.10;99960.00;;;;16525288;28;20284;-49
2022/11/10 11:14:20;;;;;;;2.13;1.13;;;;;21.40;99953.00;;;;16528584;28;20232;-49
2022/11/10 11:22:52;;;;;;;3.40;1.20;;;;;18.80;99965.00;;;;16545131;28;20220;-49
2022/11/10 11:31:19;;;;;;;3.23;1.50;;;;;20.40;99957.00;;;;16529816;28;20267;-49
2022/11/10 11:39:48;;;;;;;2.80;0.90;;;;;20.90;99965.00;;;;16519208;28;20224;-49
2022/11/10 11:48:24;;;;;;;4.57;1.37;;;;;21.80;99958.00;;;;16525396;28;20236;-49
2022/11/10 11:56:50;;;;;;;3.50;1.50;;;;;21.80;99957.00;;;;16530600;28;20263;-49
2022/11/10 12:05:27;;;;;;;4.40;2.20;;;;;21.40;99974.00;;;;16531973;28;20224;-49
2022/11/10 12:13:56;;;;;;;3.27;1.13;;;;;21.70;99954.00;;;;16492233;28;20282;-48
2022/11/10 12:22:25;;;;;;;1.90;1.20;;;;;21.90;99948.00;;;;16525463;28;20604;-48
2022/11/10 12:30:48;;;;;;;1.80;1.13;;;;;22.80;99961.00;;;;16523597;28;20716;-49
2022/11/10 12:39:17;;;;;;;3.47;0.80;;;;;23.30;99943.00;;;;16512293;28;20223;-49
2022/11/10 12:47:43;;;;;;;1.83;1.03;;;;;23.40;99949.00;;;;16513240;28;20569;-49
2022/11/10 12:56:09;;;;;;;1.90;0.87;;;;;22.40;99950.00;;;;16517423;28;20219;-48
2022/11/10 13:04:32;;;;;;;3.77;0.87;;;;;24.10;99937.00;;;;16519035;28;20219;-49
2022/11/10 13:13:00;;;;;;;5.20;1.47;;;;;23.60;99958.00;;;;16519910;28;20294;-49
2022/11/10 13:22:03;;;;;;;2.90;1.30;;;;;22.10;99970.00;;;;16506100;28;20239;-49
2022/11/10 13:30:44;;;;;;;1.60;1.17;;;;;23.80;99979.00;;;;16514332;28;20236;-50
2022/11/10 13:39:25;;;;;;;4.20;1.50;;;;;23.70;99979.00;;;;16487736;28;20740;-49
2022/11/10 13:47:55;;;;;;;1.50;0.70;;;;;23.90;99968.00;;;;16490117;28;20584;-49
2022/11/10 13:56:21;;;;;;;4.10;1.60;;;;;22.00;99988.00;;;;16496582;28;20224;-49
2022/11/10 14:04:45;;;;;;;1.87;1.07;;;;;21.20;99996.00;;;;16474829;28;20216;-49
2022/11/10 14:13:12;;;;;;;2.53;1.50;;;;;21.20;100010.00;;;;16485350;28;20243;-49
2022/11/10 14:21:39;;;;;;;1.80;1.37;;;;;20.80;100013.00;;;;16485118;28;20598;-49
2022/11/10 14:30:20;;;;;;;6.47;3.37;;;;;20.60;100013.00;;;;16476409;28;20319;-49
2022/11/10 14:38:45;;;;;;;2.90;2.53;;;;;19.90;100016.00;;;;16509898;28;20220;-49
2022/11/10 14:47:24;;;;;;;4.33;2.83;;;;;18.80;100031.00;;;;16525508;28;20577;-49
2022/11/10 14:55:47;;;;;;;8.43;2.43;;;;;16.80;100051.00;;;;16524956;28;20236;-48
2022/11/10 15:04:10;;;;;;;3.77;1.70;;;;;16.20;100077.00;;;;16523022;28;20219;-48
2022/11/10 15:12:33;;;;;;;4.67;1.70;;;;;15.80;100085.00;;;;16519642;28;20220;-48
2022/11/10 15:21:02;;;;;;;3.50;1.70;;;;;15.00;100088.00;;;;16500673;28;20696;-49
2022/11/10 15:29:25;;;;;;;7.67;2.20;;;;;14.30;100105.00;;;;16491575;28;20841;-49
2022/11/10 15:37:59;;;;;;;5.10;1.93;;;;;14.00;100127.00;;;;16483543;28;20728;-48
2022/11/10 15:46:24;;;;;;;2.70;1.80;;;;;13.90;100131.00;;;;16500487;28;20272;-48
2022/11/10 15:54:45;;;;;;;3.73;3.03;;;;;13.50;100130.00;;;;16517512;28;20224;-48
2022/11/10 16:03:10;;;;;;;4.20;2.83;;;;;13.30;100149.00;;;;16499968;28;20228;-48
2022/11/10 16:11:32;;;;;;;4.73;3.30;;;;;12.90;100158.00;;;;16484248;28;20711;-49
2022/11/10 16:19:54;;;;;;;3.70;2.60;;;;;12.60;100154.00;;;;16511689;28;20636;-48
2022/11/10 16:28:19;;;;;;;10.77;5.90;;;;;12.40;100169.00;;;;16512274;28;20202;-48
2022/11/10 16:36:45;;;;;;;4.50;3.60;;;;;12.10;100180.00;;;;16509719;28;20317;-48
2022/11/10 16:45:09;;;;;;;5.27;3.60;;;;;11.90;100190.00;;;;16507381;28;20215;-48
2022/11/10 16:53:32;;;;;;;4.00;3.70;;;;;11.90;100214.00;;;;16493315;28;20298;-48
2022/11/10 17:01:54;;;;;;;8.83;5.70;;;;;12.00;100229.00;;;;16504809;28;20219;-49
2022/11/10 17:10:18;;;;;;;15.07;8.47;;;;;11.70;100244.00;;;;16510717;28;20209;-47
2022/11/10 17:18:39;;;;;;;6.30;3.90;;;;;11.70;100237.00;;;;16499592;28;20253;-49
2022/11/10 17:27:01;;;;;;;13.60;11.63;;;;;11.80;100230.00;;;;16513781;28;20205;-49
2022/11/10 17:35:23;;;;;;;14.10;10.90;;;;;11.60;100233.00;;;;16516934;28;20844;-48
2022/11/10 17:43:46;;;;;;;12.77;8.90;;;;;11.40;100242.00;;;;16513390;28;20237;-49
2022/11/10 17:52:07;;;;;;;12.87;6.30;;;;;11.10;100272.00;;;;16492285;28;20302;-47
2022/11/10 18:00:30;;;;;;;12.37;6.80;;;;;11.20;100270.00;;;;16487238;28;20228;-48
2022/11/10 18:08:51;;;;;;;8.83;7.43;;;;;11.60;100267.00;;;;16520132;28;20294;-46
2022/11/10 18:17:13;;;;;;;14.10;10.50;;;;;10.90;100268.00;;;;16526010;28;20230;-46
2022/11/10 18:25:34;;;;;;;10.13;7.30;;;;;10.90;100288.00;;;;16520827;28;20227;-47
2022/11/10 18:33:57;;;;;;;10.63;7.87;;;;;10.90;100289.00;;;;16496183;28;20228;-47
2022/11/10 18:42:18;;;;;;;7.63;6.77;;;;;11.00;100293.00;;;;16482184;28;20226;-47
2022/11/10 18:50:40;;;;;;;8.73;5.13;;;;;10.70;100286.00;;;;16514136;28;20979;-47
2022/11/10 18:59:02;;;;;;;7.80;5.67;;;;;10.60;100292.00;;;;16522426;28;20216;-47
2022/11/10 19:07:24;;;;;;;7.47;5.17;;;;;10.80;100290.00;;;;16481359;28;20204;-48
2022/11/10 19:15:45;;;;;;;8.20;5.03;;;;;11.00;100279.00;;;;16471475;28;20248;-48
2022/11/10 19:24:08;;;;;;;10.30;6.70;;;;;10.90;100289.00;;;;16483338;28;20575;-48
2022/11/10 19:32:30;;;;;;;6.50;5.07;;;;;11.30;100298.00;;;;16476701;28;20243;-48
2022/11/10 19:40:52;;;;;;;7.10;6.40;;;;;10.50;100304.00;;;;16482046;28;20600;-48
2022/11/10 19:49:13;;;;;;;9.80;6.63;;;;;11.30;100308.00;;;;16503220;28;20602;-47
2022/11/10 19:57:36;;;;;;;8.00;5.80;;;;;11.30;100309.00;;;;16509012;28;21132;-48
2022/11/10 20:06:01;;;;;;;7.53;6.10;;;;;10.90;100301.00;;;;16498067;28;20220;-48
2022/11/10 20:14:24;;;;;;;8.10;7.03;;;;;10.60;100321.00;;;;16517241;28;20228;-48
2022/11/10 20:22:45;;;;;;;8.37;6.13;;;;;11.00;100317.00;;;;16496458;28;20228;-47
2022/11/10 20:31:08;;;;;;;13.73;7.57;;;;;10.10;100349.00;;;;16499369;28;20231;-47
2022/11/10 20:39:29;;;;;;;8.87;7.73;;;;;10.80;100345.00;;;;16526985;28;20230;-47
2022/11/10 20:47:53;;;;;;;8.90;7.93;;;;;10.30;100362.00;;;;16517277;28;20201;-48
2022/11/10 20:56:15;;;;;;;7.43;6.73;;;;;10.70;100369.00;;;;16516505;28;20315;-48
2022/11/10 21:04:37;;;;;;;13.47;8.90;;;;;9.90;100373.00;;;;16522042;28;20695;-48
2022/11/10 21:12:58;;;;;;;11.13;7.30;;;;;9.70;100389.00;;;;16519942;28;20224;-48
2022/11/10 21:21:25;;;;;;;11.03;8.90;;;;;9.60;100354.00;;;;16521527;28;20748;-49
2022/11/10 21:29:46;;;;;;;13.13;8.30;;;;;9.80;100346.00;;;;16487519;28;20723;-48
2022/11/10 21:38:11;;;;;;;9.50;8.40;;;;;9.80;100347.00;;;;16470613;28;20632;-48
2022/11/10 21:46:32;;;;;;;14.53;10.70;;;;;9.80;100370.00;;;;16498019;28;20224;-47
2022/11/10 21:54:55;;;;;;;17.20;9.77;;;;;10.20;100355.00;;;;16496659;28;20307;-48
2022/11/10 22:03:16;;;;;;;12.20;9.50;;;;;10.20;100359.00;;;;16501682;28;20220;-48
2022/11/10 22:20:31;;;;;;;9.57;8.63;;;;;10.30;100334.00;;;;16390057;28;20732;-48
2022/11/10 22:28:54;;;;;;;15.47;12.23;;;;;10.20;100318.00;;;;16494198;28;20204;-48
2022/11/10 22:37:15;;;;;;;14.27;11.23;;;;;9.60;100336.00;;;;16513360;28;20224;-47
2022/11/10 22:45:37;;;;;;;11.37;10.23;;;;;9.80;100336.00;;;;16525756;28;20223;-48
2022/11/10 22:53:58;;;;;;;13.37;11.07;;;;;10.20;100340.00;;;;16524257;28;20232;-50
2022/11/10 23:02:20;;;;;;;12.90;11.43;;;;;10.30;100343.00;;;;16532554;28;20227;-49
2022/11/10 23:10:41;;;;;;;11.20;8.37;;;;;8.90;100349.00;;;;16526393;28;20307;-49
2022/11/10 23:19:04;;;;;;;11.43;10.23;;;;;8.90;100349.00;;;;16523802;28;20228;-49
2022/11/10 23:27:25;;;;;;;10.97;9.00;;;;;9.20;100368.00;;;;16522817;28;20199;-49
2022/11/10 23:35:47;;;;;;;10.20;9.10;;;;;8.90;100372.00;;;;16533554;28;20226;-48
2022/11/10 23:44:09;;;;;;;15.00;12.00;;;;;9.40;100373.00;;;;16518125;28;20294;-49
2022/11/10 23:52:31;;;;;;;12.77;10.27;;;;;9.20;100369.00;;;;16512039;28;20224;-49
